METAR Data
IDs: Format: Raw Decoded Include TAF

Data at: 2008 UTC 14 Dec 2018

KHOU 141953Z 28020G30KT 10SM -RA OVC025 10/03 A2994 RMK AO2 PK WND 30030/1946 RAB49 SLP142 P0000 T01000033
KHOU 141853Z 29017G25KT 10SM OVC026 11/04 A2994 RMK AO2 PK WND 28027/1835 SLP144 T01060039
KHOU 141753Z 28016G22KT 10SM OVC023 10/04 A2995 RMK AO2 SLP146 60000 T01000044 10100 20072 50009
KHOU 141653Z 28017G22KT 10SM OVC019 09/04 A2997 RMK AO2 SLP154 T00940044
KHOU 141553Z 27015G19KT 10SM OVC018 09/05 A2996 RMK AO2 PK WND 28029/1502 SLP151 T00940050
KHOU 141453Z 28015G24KT 10SM OVC016 08/05 A2992 RMK AO2 SLP137 60000 T00830050 53012
KHOU 141353Z 27012KT 10SM OVC016 07/05 A2990 RMK AO2 RAB00E38 SLP130 P0000 T00720050
KHOU 141253Z 26019KT 10SM OVC014 07/04 A2989 RMK AO2 PK WND 25027/1202 SLP126 T00720044
KHOU 141153Z 27019G25KT 10SM BKN020 OVC026 08/04 A2987 RMK AO2 SLP118 T00830039 10100 20083 53010
KHOU 141053Z 26010KT 10SM OVC023 08/04 A2985 RMK AO2 SLP112 T00830039
KHOU 140953Z 27014G25KT 10SM OVC026 09/03 A2985 RMK AO2 PK WND 26028/0926 SLP112 T00890033
KHOU 140947Z 27017G23KT 10SM OVC026 09/03 A2985 RMK AO2 PK WND 26028/0926
KHOU 140853Z 26017KT 10SM BKN030 09/03 A2984 RMK AO2 SLP109 T00940033 56004
KHOU 140753Z 28013KT 10SM FEW030 BKN038 09/03 A2984 RMK AO2 SLP109 T00940028
KHOU 140653Z 26016G22KT 10SM BKN037 10/03 A2984 RMK AO2 SLP110 T01000028
KHOU 140553Z 26014KT 10SM BKN036 10/03 A2985 RMK AO2 SLP113 60000 T01000028 10206 20094 402330094 51016
KHOU 140453Z 27016G25KT 10SM FEW040 10/03 A2984 RMK AO2 PK WND 29028/0440 SLP108 T01000028
KHOU 140353Z 27017G23KT 10SM CLR 12/03 A2984 RMK AO2 PK WND 28029/0254 SLP109 T01170033
KHOU 140253Z 29021G29KT 10SM FEW120 13/04 A2980 RMK AO2 PK WND 26033/0230 RAB37E41 SLP097 P0000 60000 T01330044 53028
KHOU 140153Z 26014G22KT 10SM FEW120 18/03 A2975 RMK AO2 SLP080 T01830028
KHOU 140053Z COR 26009KT 10SM BKN120 19/04 A2974 RMK AO2 SLP076 T01940039
KHOU 132353Z 23008KT 10SM FEW038 BKN110 20/10 A2972 RMK AO2 SLP068 T02000100 10233 20200 53010
KHOU 132253Z 25009KT 10SM FEW038 SCT080 22/11 A2971 RMK AO2 SLP065 T02170106
KHOU 132153Z 25011KT 10SM SCT040 SCT095 SCT250 22/13 A2970 RMK AO2 SLP061 T02220128
KHOU 132053Z 24013KT 10SM SCT040 SCT055 23/14 A2969 RMK AO2 SLP058 T02280139 56015
KHOU 131953Z 23008KT 10SM BKN030 22/16 A2969 RMK AO2 SLP058 T02170156
KHOU 131918Z 19009KT 10SM BKN030 22/16 A2969 RMK AO2 T02220156
KHOU 131853Z 20012KT 10SM BKN025 22/16 A2971 RMK AO2 SLP065 T02220156
KHOU 131848Z 19011KT 10SM BKN025 22/16 A2971 RMK AO2
KHOU 131753Z 19012KT 10SM SCT025 SCT110 22/16 A2973 RMK AO2 SLP074 T02220161 10222 20178 58015
KHOU 131722Z 21009KT 10SM BKN030 BKN110 21/17 A2976 RMK AO2 T02110167
KHOU 131653Z 18009KT 10SM BKN025 21/17 A2978 RMK AO2 SLP089 T02060167
KHOU 131625Z 20009KT 10SM BKN028 BKN110 21/17 A2979 RMK AO2 T02060167
KHOU 131553Z 17008KT 10SM SCT120 20/17 A2979 RMK AO2 SLP093 T02000172
KHOU 131453Z 18009KT 10SM FEW010 BKN120 18/17 A2978 RMK AO2 SLP088 T01830172 53005
KHOU 131353Z 16006KT 10SM BKN120 OVC200 18/17 A2977 RMK AO2 SLP085 T01780167
KHOU 131308Z 14007KT 10SM FEW007 SCT015 BKN180 18/17 A2975 RMK AO2 T01780167
KHOU 131253Z 14006KT 10SM SCT007 BKN015 OVC030 18/17 A2975 RMK AO2 SLP080 T01830167
KHOU 131216Z 17007KT 140V200 9SM BKN007 OVC020 18/17 A2976 RMK AO2 T01830167
KHOU 131153Z 15007KT 10SM BKN012 BKN030 OVC060 18/17 A2976 RMK AO2 RAE07 TSE21 SLP083 P0000 60059 70059 T01830167 10194 20178 55003
KHOU 131122Z 15007KT 9SM SCT012 BKN025 OVC060 18/17 A2975 RMK AO2 RAE07 TSE21 TS DSPTD P0000 T01830167
KHOU 131053Z 13012G20KT 3SM TSRA BR SCT012CB BKN035 OVC080 18/17 A2974 RMK AO2 LTG DSNT NE TSE29B40 SLP074 OCNL LTGICCG VC E TS VC E MOV NE P0050 T01830167
KHOU 131041Z 13010KT 3SM TSRA BR BKN009 BKN015CB OVC022 18/17 A2975 RMK AO2 LTG DSNT E AND NW TSE29B40 PRESFR OCNL LTGICCG VC E TS VC E MOV NE P0047 T01780167
KHOU 131030Z 14005KT 3SM RA BR BKN009 BKN018 OVC025 18/17 A2977 RMK AO2 LTG DSNT E TSE29 TS MOVD NE P0042 T01780167
KHOU 130953Z COR 19007KT 3SM +TSRA BR BKN022CB BKN038 OVC080 18/17 A2977 RMK AO2 LTG DSNT N AND S AND NW RAB01 TSB18 SLP085 OCNL LTGICCG VC W-NE TS VC W-NE MOV NE P0009 T01830167
KHOU 130923Z 15011G18KT 7SM -TSRA FEW035CB SCT055 BKN070 OVC200 19/16 A2975 RMK AO2 LTG DSNT SW-N RAB01 TSE18B22 OCNL LTGICCG VC W-N TS VC W-N MOV NE P0001 T01890161
KHOU 130853Z 15010G18KT 10SM BKN031 BKN190 19/16 A2977 RMK AO2 LTG DSNT W-N SLP086 T01940156 58033